sensor_id;sensor_type;location;lat;lon;timestamp;temperature;humidity
70947;DHT22;58605;48.700;8.760;2023-11-22T00:00:09;8.10;93.20
70947;DHT22;58605;48.700;8.760;2023-11-22T00:02:36;8.20;93.20
70947;DHT22;58605;48.700;8.760;2023-11-22T00:05:03;8.20;93.00
70947;DHT22;58605;48.700;8.760;2023-11-22T00:07:31;8.20;93.00
70947;DHT22;58605;48.700;8.760;2023-11-22T00:09:57;8.20;93.00
70947;DHT22;58605;48.700;8.760;2023-11-22T00:12:24;8.30;92.90
70947;DHT22;58605;48.700;8.760;2023-11-22T00:14:50;8.30;92.80
70947;DHT22;58605;48.700;8.760;2023-11-22T00:17:18;8.30;92.70
70947;DHT22;58605;48.700;8.760;2023-11-22T00:19:45;8.30;92.70
70947;DHT22;58605;48.700;8.760;2023-11-22T00:22:11;8.30;92.70
70947;DHT22;58605;48.700;8.760;2023-11-22T00:24:39;8.20;92.80
70947;DHT22;58605;48.700;8.760;2023-11-22T00:27:06;8.20;92.90
70947;DHT22;58605;48.700;8.760;2023-11-22T00:29:32;8.20;93.00
70947;DHT22;58605;48.700;8.760;2023-11-22T00:31:58;8.20;93.00
70947;DHT22;58605;48.700;8.760;2023-11-22T00:34:26;8.20;93.00
70947;DHT22;58605;48.700;8.760;2023-11-22T00:36:52;8.10;93.00
70947;DHT22;58605;48.700;8.760;2023-11-22T00:39:18;7.70;92.60
70947;DHT22;58605;48.700;8.760;2023-11-22T00:41:45;7.10;92.50
70947;DHT22;58605;48.700;8.760;2023-11-22T00:44:11;6.60;93.00
70947;DHT22;58605;48.700;8.760;2023-11-22T00:46:38;6.30;93.20
70947;DHT22;58605;48.700;8.760;2023-11-22T00:49:04;6.10;93.50
70947;DHT22;58605;48.700;8.760;2023-11-22T00:51:32;5.90;93.90
70947;DHT22;58605;48.700;8.760;2023-11-22T00:53:58;5.80;94.20
70947;DHT22;58605;48.700;8.760;2023-11-22T00:56:25;5.60;94.00
70947;DHT22;58605;48.700;8.760;2023-11-22T00:58:51;5.50;94.40
70947;DHT22;58605;48.700;8.760;2023-11-22T01:01:19;5.30;94.40
70947;DHT22;58605;48.700;8.760;2023-11-22T01:03:45;5.20;94.40
70947;DHT22;58605;48.700;8.760;2023-11-22T01:06:12;5.10;94.50
70947;DHT22;58605;48.700;8.760;2023-11-22T01:08:40;5.10;94.80
70947;DHT22;58605;48.700;8.760;2023-11-22T01:11:06;5.00;94.90
70947;DHT22;58605;48.700;8.760;2023-11-22T01:13:33;5.00;94.90
70947;DHT22;58605;48.700;8.760;2023-11-22T01:16:06;4.90;94.80
70947;DHT22;58605;48.700;8.760;2023-11-22T01:18:32;4.90;95.00
70947;DHT22;58605;48.700;8.760;2023-11-22T01:20:58;5.00;95.00
70947;DHT22;58605;48.700;8.760;2023-11-22T01:23:25;4.90;94.50
70947;DHT22;58605;48.700;8.760;2023-11-22T01:25:52;4.80;94.50
70947;DHT22;58605;48.700;8.760;2023-11-22T01:28:19;4.70;94.60
70947;DHT22;58605;48.700;8.760;2023-11-22T01:30:45;4.80;94.80
70947;DHT22;58605;48.700;8.760;2023-11-22T01:33:11;4.80;94.70
70947;DHT22;58605;48.700;8.760;2023-11-22T01:35:38;4.80;94.70
70947;DHT22;58605;48.700;8.760;2023-11-22T01:38:04;4.80;94.60
70947;DHT22;58605;48.700;8.760;2023-11-22T01:40:30;4.70;94.20
70947;DHT22;58605;48.700;8.760;2023-11-22T01:42:58;4.60;94.20
70947;DHT22;58605;48.700;8.760;2023-11-22T01:45:24;4.60;94.20
70947;DHT22;58605;48.700;8.760;2023-11-22T01:47:51;4.60;94.40
70947;DHT22;58605;48.700;8.760;2023-11-22T01:50:18;4.50;94.10
70947;DHT22;58605;48.700;8.760;2023-11-22T01:52:45;4.40;94.30
70947;DHT22;58605;48.700;8.760;2023-11-22T01:55:12;4.40;94.00
70947;DHT22;58605;48.700;8.760;2023-11-22T01:57:39;4.30;93.90
70947;DHT22;58605;48.700;8.760;2023-11-22T02:03:29;4.10;93.80
70947;DHT22;58605;48.700;8.760;2023-11-22T02:05:56;4.00;93.60
70947;DHT22;58605;48.700;8.760;2023-11-22T02:08:22;4.00;93.80
70947;DHT22;58605;48.700;8.760;2023-11-22T02:10:57;4.00;94.00
70947;DHT22;58605;48.700;8.760;2023-11-22T02:13:24;4.00;93.80
70947;DHT22;58605;48.700;8.760;2023-11-22T02:15:51;3.90;93.60
70947;DHT22;58605;48.700;8.760;2023-11-22T02:18:18;3.90;93.60
70947;DHT22;58605;48.700;8.760;2023-11-22T02:20:45;3.80;93.60
70947;DHT22;58605;48.700;8.760;2023-11-22T02:23:14;3.70;93.50
70947;DHT22;58605;48.700;8.760;2023-11-22T02:25:40;3.70;93.70
70947;DHT22;58605;48.700;8.760;2023-11-22T02:28:06;3.70;93.70
70947;DHT22;58605;48.700;8.760;2023-11-22T02:30:34;3.70;93.60
70947;DHT22;58605;48.700;8.760;2023-11-22T02:33:00;3.60;93.80
70947;DHT22;58605;48.700;8.760;2023-11-22T02:35:26;3.60;93.80
70947;DHT22;58605;48.700;8.760;2023-11-22T02:37:56;3.60;93.70
70947;DHT22;58605;48.700;8.760;2023-11-22T02:40:23;3.50;93.50
70947;DHT22;58605;48.700;8.760;2023-11-22T02:42:52;3.40;93.50
70947;DHT22;58605;48.700;8.760;2023-11-22T02:45:21;3.40;93.60
70947;DHT22;58605;48.700;8.760;2023-11-22T02:47:50;3.40;93.30
70947;DHT22;58605;48.700;8.760;2023-11-22T02:50:18;3.30;93.20
70947;DHT22;58605;48.700;8.760;2023-11-22T02:52:44;3.30;93.60
70947;DHT22;58605;48.700;8.760;2023-11-22T02:55:10;3.30;93.60
70947;DHT22;58605;48.700;8.760;2023-11-22T02:57:38;3.40;93.70
70947;DHT22;58605;48.700;8.760;2023-11-22T03:00:08;3.40;93.60
70947;DHT22;58605;48.700;8.760;2023-11-22T03:02:43;3.30;93.40
70947;DHT22;58605;48.700;8.760;2023-11-22T03:05:09;3.30;93.40
70947;DHT22;58605;48.700;8.760;2023-11-22T03:07:35;3.20;93.50
70947;DHT22;58605;48.700;8.760;2023-11-22T03:10:02;3.20;93.50
70947;DHT22;58605;48.700;8.760;2023-11-22T03:12:34;3.30;93.60
70947;DHT22;58605;48.700;8.760;2023-11-22T03:15:10;3.20;93.40
70947;DHT22;58605;48.700;8.760;2023-11-22T03:17:37;3.20;93.60
70947;DHT22;58605;48.700;8.760;2023-11-22T03:20:05;3.20;93.50
70947;DHT22;58605;48.700;8.760;2023-11-22T03:22:35;3.20;93.40
70947;DHT22;58605;48.700;8.760;2023-11-22T03:25:02;3.20;93.60
70947;DHT22;58605;48.700;8.760;2023-11-22T03:27:28;3.10;93.60
70947;DHT22;58605;48.700;8.760;2023-11-22T03:29:54;3.10;93.60
70947;DHT22;58605;48.700;8.760;2023-11-22T03:32:22;3.10;93.50
70947;DHT22;58605;48.700;8.760;2023-11-22T03:34:48;3.20;93.60
70947;DHT22;58605;48.700;8.760;2023-11-22T03:37:14;3.10;93.60
70947;DHT22;58605;48.700;8.760;2023-11-22T03:39:40;3.00;93.60
70947;DHT22;58605;48.700;8.760;2023-11-22T03:42:14;3.00;93.70
70947;DHT22;58605;48.700;8.760;2023-11-22T03:44:40;2.90;93.90
70947;DHT22;58605;48.700;8.760;2023-11-22T03:47:06;2.90;94.10
70947;DHT22;58605;48.700;8.760;2023-11-22T03:49:34;3.00;94.20
70947;DHT22;58605;48.700;8.760;2023-11-22T03:52:00;3.10;94.20
70947;DHT22;58605;48.700;8.760;2023-11-22T03:54:26;3.00;93.70
70947;DHT22;58605;48.700;8.760;2023-11-22T03:56:52;2.90;93.60
70947;DHT22;58605;48.700;8.760;2023-11-22T03:59:18;2.90;93.70
70947;DHT22;58605;48.700;8.760;2023-11-22T04:01:44;2.80;93.80
70947;DHT22;58605;48.700;8.760;2023-11-22T04:04:10;2.80;93.80
70947;DHT22;58605;48.700;8.760;2023-11-22T04:06:38;2.90;93.90
70947;DHT22;58605;48.700;8.760;2023-11-22T04:09:04;2.90;93.80
70947;DHT22;58605;48.700;8.760;2023-11-22T04:11:31;2.90;93.90
70947;DHT22;58605;48.700;8.760;2023-11-22T04:13:57;2.90;93.90
70947;DHT22;58605;48.700;8.760;2023-11-22T04:16:23;2.90;93.80
70947;DHT22;58605;48.700;8.760;2023-11-22T04:18:49;2.80;93.60
70947;DHT22;58605;48.700;8.760;2023-11-22T04:21:15;2.90;93.80
70947;DHT22;58605;48.700;8.760;2023-11-22T04:23:43;2.90;93.60
70947;DHT22;58605;48.700;8.760;2023-11-22T04:26:09;2.90;93.60
70947;DHT22;58605;48.700;8.760;2023-11-22T04:28:35;3.00;93.60
70947;DHT22;58605;48.700;8.760;2023-11-22T04:31:01;3.00;93.30
70947;DHT22;58605;48.700;8.760;2023-11-22T04:33:27;2.90;93.00
70947;DHT22;58605;48.700;8.760;2023-11-22T04:35:53;2.90;93.10
70947;DHT22;58605;48.700;8.760;2023-11-22T04:38:20;2.90;93.10
70947;DHT22;58605;48.700;8.760;2023-11-22T04:40:47;2.80;92.90
70947;DHT22;58605;48.700;8.760;2023-11-22T04:43:14;2.90;93.10
70947;DHT22;58605;48.700;8.760;2023-11-22T04:45:40;2.90;92.80
70947;DHT22;58605;48.700;8.760;2023-11-22T04:48:06;2.90;92.70
70947;DHT22;58605;48.700;8.760;2023-11-22T04:50:32;2.90;92.30
70947;DHT22;58605;48.700;8.760;2023-11-22T04:52:58;2.90;92.50
70947;DHT22;58605;48.700;8.760;2023-11-22T04:55:24;2.80;92.20
70947;DHT22;58605;48.700;8.760;2023-11-22T04:57:52;2.80;92.20
70947;DHT22;58605;48.700;8.760;2023-11-22T05:00:19;2.80;91.70
70947;DHT22;58605;48.700;8.760;2023-11-22T05:02:45;2.80;92.10
70947;DHT22;58605;48.700;8.760;2023-11-22T05:05:11;2.80;91.70
70947;DHT22;58605;48.700;8.760;2023-11-22T05:07:37;2.80;91.70
70947;DHT22;58605;48.700;8.760;2023-11-22T05:10:05;2.80;92.10
70947;DHT22;58605;48.700;8.760;2023-11-22T05:12:31;2.90;92.20
70947;DHT22;58605;48.700;8.760;2023-11-22T05:14:59;2.80;91.90
70947;DHT22;58605;48.700;8.760;2023-11-22T05:17:25;2.80;92.00
70947;DHT22;58605;48.700;8.760;2023-11-22T05:19:51;2.80;92.20
70947;DHT22;58605;48.700;8.760;2023-11-22T05:22:17;2.80;91.70
70947;DHT22;58605;48.700;8.760;2023-11-22T05:24:43;2.70;91.90
70947;DHT22;58605;48.700;8.760;2023-11-22T05:27:09;2.70;92.10
70947;DHT22;58605;48.700;8.760;2023-11-22T05:29:36;2.70;92.10
70947;DHT22;58605;48.700;8.760;2023-11-22T05:32:04;2.70;92.00
70947;DHT22;58605;48.700;8.760;2023-11-22T05:34:31;2.70;91.90
70947;DHT22;58605;48.700;8.760;2023-11-22T05:36:58;2.70;91.60
70947;DHT22;58605;48.700;8.760;2023-11-22T05:39:24;2.80;91.60
70947;DHT22;58605;48.700;8.760;2023-11-22T05:41:50;2.80;91.20
70947;DHT22;58605;48.700;8.760;2023-11-22T05:44:16;2.80;91.10
70947;DHT22;58605;48.700;8.760;2023-11-22T05:46:42;2.80;91.10
70947;DHT22;58605;48.700;8.760;2023-11-22T05:49:10;2.70;90.80
70947;DHT22;58605;48.700;8.760;2023-11-22T05:51:36;2.70;90.60
70947;DHT22;58605;48.700;8.760;2023-11-22T05:54:03;2.70;91.00
70947;DHT22;58605;48.700;8.760;2023-11-22T05:56:29;2.70;90.50
70947;DHT22;58605;48.700;8.760;2023-11-22T05:58:56;2.70;90.50
70947;DHT22;58605;48.700;8.760;2023-11-22T06:01:22;2.70;90.60
70947;DHT22;58605;48.700;8.760;2023-11-22T06:03:49;2.70;91.00
70947;DHT22;58605;48.700;8.760;2023-11-22T06:06:16;2.80;91.00
70947;DHT22;58605;48.700;8.760;2023-11-22T06:08:42;2.70;90.60
70947;DHT22;58605;48.700;8.760;2023-11-22T06:11:08;2.80;90.70
70947;DHT22;58605;48.700;8.760;2023-11-22T06:13:35;2.80;90.60
70947;DHT22;58605;48.700;8.760;2023-11-22T06:16:01;2.80;90.50
70947;DHT22;58605;48.700;8.760;2023-11-22T06:18:27;2.70;90.40
70947;DHT22;58605;48.700;8.760;2023-11-22T06:20:55;2.70;90.20
70947;DHT22;58605;48.700;8.760;2023-11-22T06:23:23;2.70;90.70
70947;DHT22;58605;48.700;8.760;2023-11-22T06:25:49;2.80;91.30
70947;DHT22;58605;48.700;8.760;2023-11-22T06:28:15;2.80;91.00
70947;DHT22;58605;48.700;8.760;2023-11-22T06:30:42;2.70;90.70
70947;DHT22;58605;48.700;8.760;2023-11-22T06:33:08;2.70;91.10
70947;DHT22;58605;48.700;8.760;2023-11-22T06:35:34;2.60;91.20
70947;DHT22;58605;48.700;8.760;2023-11-22T06:38:02;2.60;91.10
70947;DHT22;58605;48.700;8.760;2023-11-22T06:40:30;2.60;91.20
70947;DHT22;58605;48.700;8.760;2023-11-22T06:42:57;2.60;91.40
70947;DHT22;58605;48.700;8.760;2023-11-22T06:45:23;2.60;91.40
70947;DHT22;58605;48.700;8.760;2023-11-22T06:47:49;2.70;91.30
70947;DHT22;58605;48.700;8.760;2023-11-22T06:50:16;2.60;91.30
70947;DHT22;58605;48.700;8.760;2023-11-22T06:52:43;2.60;91.50
70947;DHT22;58605;48.700;8.760;2023-11-22T06:55:09;2.60;91.40
70947;DHT22;58605;48.700;8.760;2023-11-22T06:57:37;2.70;91.60
70947;DHT22;58605;48.700;8.760;2023-11-22T07:00:05;2.70;91.80
70947;DHT22;58605;48.700;8.760;2023-11-22T07:02:31;2.70;91.60
70947;DHT22;58605;48.700;8.760;2023-11-22T07:04:57;2.60;91.40
70947;DHT22;58605;48.700;8.760;2023-11-22T07:07:26;2.60;91.60
70947;DHT22;58605;48.700;8.760;2023-11-22T07:09:52;2.60;91.50
70947;DHT22;58605;48.700;8.760;2023-11-22T07:12:19;2.60;91.50
70947;DHT22;58605;48.700;8.760;2023-11-22T07:14:46;2.60;91.70
70947;DHT22;58605;48.700;8.760;2023-11-22T07:17:15;2.60;91.60
70947;DHT22;58605;48.700;8.760;2023-11-22T07:19:43;2.60;91.80
70947;DHT22;58605;48.700;8.760;2023-11-22T07:22:12;2.50;91.50
70947;DHT22;58605;48.700;8.760;2023-11-22T07:24:41;2.50;91.50
70947;DHT22;58605;48.700;8.760;2023-11-22T07:27:09;2.50;91.50
70947;DHT22;58605;48.700;8.760;2023-11-22T07:29:38;2.40;91.60
70947;DHT22;58605;48.700;8.760;2023-11-22T07:32:07;2.40;91.80
70947;DHT22;58605;48.700;8.760;2023-11-22T07:34:34;2.30;91.70
70947;DHT22;58605;48.700;8.760;2023-11-22T07:37:00;2.40;91.80
70947;DHT22;58605;48.700;8.760;2023-11-22T07:39:27;2.50;91.60
70947;DHT22;58605;48.700;8.760;2023-11-22T07:41:53;2.50;91.60
70947;DHT22;58605;48.700;8.760;2023-11-22T07:44:20;2.50;91.80
70947;DHT22;58605;48.700;8.760;2023-11-22T07:46:47;2.40;91.60
70947;DHT22;58605;48.700;8.760;2023-11-22T07:49:14;2.30;91.90
70947;DHT22;58605;48.700;8.760;2023-11-22T07:51:40;2.20;91.50
70947;DHT22;58605;48.700;8.760;2023-11-22T07:54:07;2.30;91.70
70947;DHT22;58605;48.700;8.760;2023-11-22T07:56:34;2.20;91.60
70947;DHT22;58605;48.700;8.760;2023-11-22T07:59:00;2.10;91.20
70947;DHT22;58605;48.700;8.760;2023-11-22T08:01:26;2.10;91.00
70947;DHT22;58605;48.700;8.760;2023-11-22T08:03:55;2.00;90.40
70947;DHT22;58605;48.700;8.760;2023-11-22T08:06:23;2.00;90.00
70947;DHT22;58605;48.700;8.760;2023-11-22T08:08:49;2.00;89.70
70947;DHT22;58605;48.700;8.760;2023-11-22T08:11:17;2.00;90.10
70947;DHT22;58605;48.700;8.760;2023-11-22T08:13:53;1.90;90.00
70947;DHT22;58605;48.700;8.760;2023-11-22T08:16:23;1.90;89.40
70947;DHT22;58605;48.700;8.760;2023-11-22T08:18:49;1.80;89.30
70947;DHT22;58605;48.700;8.760;2023-11-22T08:21:16;1.80;89.90
70947;DHT22;58605;48.700;8.760;2023-11-22T08:23:45;1.80;88.50
70947;DHT22;58605;48.700;8.760;2023-11-22T08:26:12;1.80;87.50
70947;DHT22;58605;48.700;8.760;2023-11-22T08:28:40;1.80;87.70
70947;DHT22;58605;48.700;8.760;2023-11-22T08:31:06;1.80;87.00
70947;DHT22;58605;48.700;8.760;2023-11-22T08:33:35;1.90;88.00
70947;DHT22;58605;48.700;8.760;2023-11-22T08:36:01;1.90;88.30
70947;DHT22;58605;48.700;8.760;2023-11-22T08:38:30;2.00;88.30
70947;DHT22;58605;48.700;8.760;2023-11-22T08:41:08;2.00;87.30
70947;DHT22;58605;48.700;8.760;2023-11-22T08:43:37;2.00;87.50
70947;DHT22;58605;48.700;8.760;2023-11-22T08:46:03;2.10;89.20
70947;DHT22;58605;48.700;8.760;2023-11-22T08:48:35;2.10;88.90
70947;DHT22;58605;48.700;8.760;2023-11-22T08:51:01;2.10;87.50
70947;DHT22;58605;48.700;8.760;2023-11-22T08:53:29;2.10;87.00
70947;DHT22;58605;48.700;8.760;2023-11-22T08:55:56;2.10;87.80
70947;DHT22;58605;48.700;8.760;2023-11-22T08:58:23;2.10;88.50
70947;DHT22;58605;48.700;8.760;2023-11-22T09:00:49;2.10;89.00
70947;DHT22;58605;48.700;8.760;2023-11-22T09:03:16;2.20;88.10
70947;DHT22;58605;48.700;8.760;2023-11-22T09:05:43;2.30;88.80
70947;DHT22;58605;48.700;8.760;2023-11-22T09:08:09;2.30;86.80
70947;DHT22;58605;48.700;8.760;2023-11-22T09:10:40;2.30;85.00
70947;DHT22;58605;48.700;8.760;2023-11-22T09:13:08;2.20;84.20
70947;DHT22;58605;48.700;8.760;2023-11-22T09:15:36;2.20;84.00
70947;DHT22;58605;48.700;8.760;2023-11-22T09:18:04;2.10;83.20
70947;DHT22;58605;48.700;8.760;2023-11-22T09:20:30;2.00;83.30
70947;DHT22;58605;48.700;8.760;2023-11-22T09:22:57;2.00;85.70
70947;DHT22;58605;48.700;8.760;2023-11-22T09:25:24;2.10;84.10
70947;DHT22;58605;48.700;8.760;2023-11-22T09:27:52;2.10;84.30
70947;DHT22;58605;48.700;8.760;2023-11-22T09:30:22;2.20;85.70
70947;DHT22;58605;48.700;8.760;2023-11-22T09:33:19;2.20;84.70
70947;DHT22;58605;48.700;8.760;2023-11-22T09:35:46;2.10;84.90
70947;DHT22;58605;48.700;8.760;2023-11-22T09:38:13;2.20;87.20
70947;DHT22;58605;48.700;8.760;2023-11-22T09:40:42;2.10;84.40
70947;DHT22;58605;48.700;8.760;2023-11-22T09:43:09;2.10;85.30
70947;DHT22;58605;48.700;8.760;2023-11-22T09:45:36;2.10;85.20
70947;DHT22;58605;48.700;8.760;2023-11-22T09:48:07;2.20;86.60
70947;DHT22;58605;48.700;8.760;2023-11-22T09:50:42;2.10;84.70
70947;DHT22;58605;48.700;8.760;2023-11-22T09:53:16;2.10;85.10
70947;DHT22;58605;48.700;8.760;2023-11-22T09:55:45;2.10;85.30
70947;DHT22;58605;48.700;8.760;2023-11-22T09:58:12;2.30;87.60
70947;DHT22;58605;48.700;8.760;2023-11-22T10:00:41;2.30;86.60
70947;DHT22;58605;48.700;8.760;2023-11-22T10:03:07;2.30;85.40
70947;DHT22;58605;48.700;8.760;2023-11-22T10:05:33;2.30;85.20
70947;DHT22;58605;48.700;8.760;2023-11-22T10:08:02;2.40;86.60
70947;DHT22;58605;48.700;8.760;2023-11-22T10:10:29;2.40;85.30
70947;DHT22;58605;48.700;8.760;2023-11-22T10:12:58;2.50;86.10
70947;DHT22;58605;48.700;8.760;2023-11-22T10:15:28;2.50;86.80
70947;DHT22;58605;48.700;8.760;2023-11-22T10:17:55;2.60;86.60
70947;DHT22;58605;48.700;8.760;2023-11-22T10:20:22;2.70;86.50
70947;DHT22;58605;48.700;8.760;2023-11-22T10:22:48;2.70;85.00
70947;DHT22;58605;48.700;8.760;2023-11-22T10:25:16;2.60;84.30
70947;DHT22;58605;48.700;8.760;2023-11-22T10:27:45;2.60;84.70
70947;DHT22;58605;48.700;8.760;2023-11-22T10:30:13;2.70;84.20
70947;DHT22;58605;48.700;8.760;2023-11-22T10:32:41;2.70;83.80
70947;DHT22;58605;48.700;8.760;2023-11-22T10:35:08;2.70;84.80
70947;DHT22;58605;48.700;8.760;2023-11-22T10:37:35;2.80;84.60
70947;DHT22;58605;48.700;8.760;2023-11-22T10:40:01;2.90;84.30
70947;DHT22;58605;48.700;8.760;2023-11-22T10:42:31;3.00;84.10
70947;DHT22;58605;48.700;8.760;2023-11-22T10:45:00;2.90;83.30
70947;DHT22;58605;48.700;8.760;2023-11-22T10:47:30;2.90;83.60
70947;DHT22;58605;48.700;8.760;2023-11-22T10:49:57;2.80;83.70
70947;DHT22;58605;48.700;8.760;2023-11-22T10:52:26;2.80;84.40
70947;DHT22;58605;48.700;8.760;2023-11-22T10:54:59;2.90;84.20
70947;DHT22;58605;48.700;8.760;2023-11-22T10:57:33;3.00;83.60
70947;DHT22;58605;48.700;8.760;2023-11-22T11:00:04;3.00;84.70
70947;DHT22;58605;48.700;8.760;2023-11-22T11:02:40;3.00;84.00
70947;DHT22;58605;48.700;8.760;2023-11-22T11:05:15;2.80;82.90
70947;DHT22;58605;48.700;8.760;2023-11-22T11:07:49;2.80;84.70
70947;DHT22;58605;48.700;8.760;2023-11-22T11:10:20;2.80;84.20
70947;DHT22;58605;48.700;8.760;2023-11-22T11:12:49;2.70;83.80
70947;DHT22;58605;48.700;8.760;2023-11-22T11:15:15;2.70;84.70
70947;DHT22;58605;48.700;8.760;2023-11-22T11:17:44;2.70;84.20
70947;DHT22;58605;48.700;8.760;2023-11-22T11:20:13;2.70;84.30
70947;DHT22;58605;48.700;8.760;2023-11-22T11:22:41;2.80;84.90
70947;DHT22;58605;48.700;8.760;2023-11-22T11:25:07;2.80;84.80
70947;DHT22;58605;48.700;8.760;2023-11-22T11:27:34;2.80;85.10
70947;DHT22;58605;48.700;8.760;2023-11-22T11:33:06;2.60;84.60
70947;DHT22;58605;48.700;8.760;2023-11-22T11:35:38;2.60;86.10
70947;DHT22;58605;48.700;8.760;2023-11-22T11:38:05;2.60;86.20
70947;DHT22;58605;48.700;8.760;2023-11-22T11:40:35;2.70;86.70
70947;DHT22;58605;48.700;8.760;2023-11-22T11:43:01;2.60;86.20
70947;DHT22;58605;48.700;8.760;2023-11-22T11:45:28;2.60;86.40
70947;DHT22;58605;48.700;8.760;2023-11-22T11:47:55;2.70;88.00
70947;DHT22;58605;48.700;8.760;2023-11-22T11:50:23;2.70;87.00
70947;DHT22;58605;48.700;8.760;2023-11-22T11:52:49;2.60;86.20
70947;DHT22;58605;48.700;8.760;2023-11-22T11:55:15;2.60;86.60
70947;DHT22;58605;48.700;8.760;2023-11-22T11:57:41;2.60;87.90
70947;DHT22;58605;48.700;8.760;2023-11-22T12:00:08;2.50;86.80
70947;DHT22;58605;48.700;8.760;2023-11-22T12:02:39;2.40;85.90
70947;DHT22;58605;48.700;8.760;2023-11-22T12:05:06;2.40;86.80
70947;DHT22;58605;48.700;8.760;2023-11-22T12:07:35;2.40;86.90
70947;DHT22;58605;48.700;8.760;2023-11-22T12:10:02;2.40;87.40
70947;DHT22;58605;48.700;8.760;2023-11-22T12:12:28;2.40;87.30
70947;DHT22;58605;48.700;8.760;2023-11-22T12:14:55;2.40;87.00
70947;DHT22;58605;48.700;8.760;2023-11-22T12:17:22;2.40;87.00
70947;DHT22;58605;48.700;8.760;2023-11-22T12:19:48;2.50;87.90
70947;DHT22;58605;48.700;8.760;2023-11-22T12:22:14;2.60;87.30
70947;DHT22;58605;48.700;8.760;2023-11-22T12:24:43;2.70;86.20
70947;DHT22;58605;48.700;8.760;2023-11-22T12:27:10;2.70;85.50
70947;DHT22;58605;48.700;8.760;2023-11-22T12:29:36;2.70;86.30
70947;DHT22;58605;48.700;8.760;2023-11-22T12:32:03;2.70;86.20
70947;DHT22;58605;48.700;8.760;2023-11-22T12:34:29;2.70;85.80
70947;DHT22;58605;48.700;8.760;2023-11-22T12:36:56;2.60;85.50
70947;DHT22;58605;48.700;8.760;2023-11-22T12:39:23;2.50;85.80
70947;DHT22;58605;48.700;8.760;2023-11-22T12:41:52;2.40;86.30
70947;DHT22;58605;48.700;8.760;2023-11-22T12:44:19;2.40;87.60
70947;DHT22;58605;48.700;8.760;2023-11-22T12:46:49;2.40;86.80
70947;DHT22;58605;48.700;8.760;2023-11-22T12:49:21;2.40;86.30
70947;DHT22;58605;48.700;8.760;2023-11-22T12:51:49;2.40;86.50
70947;DHT22;58605;48.700;8.760;2023-11-22T12:54:15;2.40;86.10
70947;DHT22;58605;48.700;8.760;2023-11-22T12:56:42;2.40;86.30
70947;DHT22;58605;48.700;8.760;2023-11-22T12:59:10;2.30;87.20
70947;DHT22;58605;48.700;8.760;2023-11-22T13:01:36;2.30;87.60
70947;DHT22;58605;48.700;8.760;2023-11-22T13:04:03;2.40;87.40
70947;DHT22;58605;48.700;8.760;2023-11-22T13:06:30;2.40;87.90
70947;DHT22;58605;48.700;8.760;2023-11-22T13:08:56;2.30;87.30
70947;DHT22;58605;48.700;8.760;2023-11-22T13:11:22;2.40;87.10
70947;DHT22;58605;48.700;8.760;2023-11-22T13:13:48;2.50;88.00
70947;DHT22;58605;48.700;8.760;2023-11-22T13:16:16;2.60;86.70
70947;DHT22;58605;48.700;8.760;2023-11-22T13:18:42;2.60;85.60
70947;DHT22;58605;48.700;8.760;2023-11-22T13:21:08;2.50;86.00
70947;DHT22;58605;48.700;8.760;2023-11-22T13:23:34;2.40;86.70
70947;DHT22;58605;48.700;8.760;2023-11-22T13:26:00;2.40;86.90
70947;DHT22;58605;48.700;8.760;2023-11-22T13:28:27;2.40;87.50
70947;DHT22;58605;48.700;8.760;2023-11-22T13:30:53;2.40;86.90
70947;DHT22;58605;48.700;8.760;2023-11-22T13:33:21;2.30;86.10
70947;DHT22;58605;48.700;8.760;2023-11-22T13:35:47;2.20;86.40
70947;DHT22;58605;48.700;8.760;2023-11-22T13:38:13;2.10;87.30
70947;DHT22;58605;48.700;8.760;2023-11-22T13:40:41;2.00;87.50
70947;DHT22;58605;48.700;8.760;2023-11-22T13:43:12;2.10;88.80
70947;DHT22;58605;48.700;8.760;2023-11-22T13:45:39;2.20;88.10
70947;DHT22;58605;48.700;8.760;2023-11-22T13:48:08;2.10;87.40
70947;DHT22;58605;48.700;8.760;2023-11-22T13:50:37;2.10;87.20
70947;DHT22;58605;48.700;8.760;2023-11-22T13:53:03;2.10;87.30
70947;DHT22;58605;48.700;8.760;2023-11-22T13:55:31;2.10;87.60
70947;DHT22;58605;48.700;8.760;2023-11-22T13:57:58;2.20;87.90
70947;DHT22;58605;48.700;8.760;2023-11-22T14:00:26;2.20;87.10
70947;DHT22;58605;48.700;8.760;2023-11-22T14:02:56;2.20;86.10
70947;DHT22;58605;48.700;8.760;2023-11-22T14:05:22;2.10;87.10
70947;DHT22;58605;48.700;8.760;2023-11-22T14:07:51;2.20;87.50
70947;DHT22;58605;48.700;8.760;2023-11-22T14:10:18;2.20;86.80
70947;DHT22;58605;48.700;8.760;2023-11-22T14:12:44;2.20;86.30
70947;DHT22;58605;48.700;8.760;2023-11-22T14:15:12;2.20;86.70
70947;DHT22;58605;48.700;8.760;2023-11-22T14:17:38;2.30;86.80
70947;DHT22;58605;48.700;8.760;2023-11-22T14:20:07;2.40;86.00
70947;DHT22;58605;48.700;8.760;2023-11-22T14:22:35;2.40;86.40
70947;DHT22;58605;48.700;8.760;2023-11-22T14:25:03;2.40;85.60
70947;DHT22;58605;48.700;8.760;2023-11-22T14:27:34;2.20;86.00
70947;DHT22;58605;48.700;8.760;2023-11-22T14:30:00;2.20;86.40
70947;DHT22;58605;48.700;8.760;2023-11-22T14:32:32;2.20;85.00
70947;DHT22;58605;48.700;8.760;2023-11-22T14:35:00;2.20;86.40
70947;DHT22;58605;48.700;8.760;2023-11-22T14:37:27;2.30;85.50
70947;DHT22;58605;48.700;8.760;2023-11-22T14:39:54;2.40;85.30
70947;DHT22;58605;48.700;8.760;2023-11-22T14:42:21;2.40;84.30
70947;DHT22;58605;48.700;8.760;2023-11-22T14:44:47;2.50;84.20
70947;DHT22;58605;48.700;8.760;2023-11-22T14:47:14;2.60;84.10
70947;DHT22;58605;48.700;8.760;2023-11-22T14:49:48;2.60;82.50
70947;DHT22;58605;48.700;8.760;2023-11-22T14:52:14;2.60;79.90
70947;DHT22;58605;48.700;8.760;2023-11-22T14:54:42;2.60;80.60
70947;DHT22;58605;48.700;8.760;2023-11-22T14:57:09;2.70;82.70
70947;DHT22;58605;48.700;8.760;2023-11-22T14:59:37;2.80;81.00
70947;DHT22;58605;48.700;8.760;2023-11-22T15:02:03;2.70;81.40
70947;DHT22;58605;48.700;8.760;2023-11-22T15:04:32;2.70;82.00
70947;DHT22;58605;48.700;8.760;2023-11-22T15:07:00;2.70;83.20
70947;DHT22;58605;48.700;8.760;2023-11-22T15:09:26;2.60;83.50
70947;DHT22;58605;48.700;8.760;2023-11-22T15:11:53;2.60;84.80
70947;DHT22;58605;48.700;8.760;2023-11-22T15:14:20;2.70;83.60
70947;DHT22;58605;48.700;8.760;2023-11-22T15:16:49;2.70;81.80
70947;DHT22;58605;48.700;8.760;2023-11-22T15:19:15;2.70;81.30
70947;DHT22;58605;48.700;8.760;2023-11-22T15:21:42;2.70;82.70
70947;DHT22;58605;48.700;8.760;2023-11-22T15:24:08;2.60;81.70
70947;DHT22;58605;48.700;8.760;2023-11-22T15:26:35;2.70;83.60
70947;DHT22;58605;48.700;8.760;2023-11-22T15:29:01;2.70;83.30
70947;DHT22;58605;48.700;8.760;2023-11-22T15:31:27;2.70;83.40
70947;DHT22;58605;48.700;8.760;2023-11-22T15:33:55;2.70;84.20
70947;DHT22;58605;48.700;8.760;2023-11-22T15:36:21;2.60;82.90
70947;DHT22;58605;48.700;8.760;2023-11-22T15:38:47;2.60;83.20
70947;DHT22;58605;48.700;8.760;2023-11-22T15:41:14;2.60;81.40
70947;DHT22;58605;48.700;8.760;2023-11-22T15:43:40;2.50;81.50
70947;DHT22;58605;48.700;8.760;2023-11-22T15:46:10;2.50;81.00
70947;DHT22;58605;48.700;8.760;2023-11-22T15:48:36;2.40;81.40
70947;DHT22;58605;48.700;8.760;2023-11-22T15:51:05;2.40;82.40